createdAt,value
2019-02-08T00:01:29.961Z,33.87
2019-02-08T00:06:25.760Z,36.07
2019-02-08T00:11:21.445Z,34.67
2019-02-08T00:16:17.234Z,34.47
2019-02-08T00:21:13.232Z,33.57
2019-02-08T00:26:09.013Z,33.93
2019-02-08T00:31:04.811Z,34.03
2019-02-08T00:36:00.589Z,32.50
2019-02-08T00:40:56.286Z,31.77
2019-02-08T00:45:51.972Z,33.17
2019-02-08T00:50:47.765Z,33.60
2019-02-08T00:55:43.457Z,34.30
2019-02-08T01:00:39.534Z,34.40
2019-02-08T01:05:35.209Z,30.87
2019-02-08T01:10:31.481Z,31.43
2019-02-08T01:15:28.474Z,29.00
2019-02-08T01:20:24.658Z,31.27
2019-02-08T01:25:21.250Z,29.23
2019-02-08T01:30:18.152Z,30.17
2019-02-08T01:35:14.939Z,28.70
2019-02-08T01:40:12.525Z,28.53
2019-02-08T01:45:12.961Z,29.07
2019-02-08T01:50:16.065Z,25.33
2019-02-08T01:55:12.053Z,26.60
2019-02-08T02:00:15.409Z,27.47
2019-02-08T02:05:11.301Z,25.70
2019-02-08T02:10:11.772Z,24.63
2019-02-08T02:15:07.686Z,24.60
2019-02-08T02:20:08.290Z,21.93
2019-02-08T02:25:05.392Z,23.00
2019-02-08T02:30:01.082Z,25.20
2019-02-08T02:34:56.765Z,22.70
2019-02-08T02:39:52.453Z,22.67
2019-02-08T02:44:48.276Z,22.43
2019-02-08T02:49:43.989Z,22.43
2019-02-08T02:54:39.691Z,22.57
2019-02-08T02:59:35.414Z,21.43
2019-02-08T03:04:31.105Z,21.17
2019-02-08T03:09:27.166Z,19.50
2019-02-08T03:14:22.970Z,19.20
2019-02-08T03:19:18.799Z,19.83
2019-02-08T03:24:14.487Z,20.37
2019-02-08T03:29:10.196Z,18.63
2019-02-08T03:34:05.924Z,20.97
2019-02-08T03:39:01.896Z,19.90
2019-02-08T03:43:57.603Z,20.40
2019-02-08T03:48:53.307Z,20.57
2019-02-08T03:53:49.038Z,19.03
2019-02-08T03:58:44.797Z,18.57
2019-02-08T04:03:40.635Z,19.50
2019-02-08T04:08:36.471Z,19.87
2019-02-08T04:13:32.480Z,20.20
2019-02-08T04:18:28.287Z,19.97
2019-02-08T04:23:23.993Z,19.60
2019-02-08T04:28:19.673Z,20.67
2019-02-08T04:33:15.390Z,19.83
2019-02-08T04:38:11.113Z,19.90
2019-02-08T04:43:06.827Z,20.73
2019-02-08T04:48:02.697Z,21.23
2019-02-08T04:52:58.425Z,20.30
2019-02-08T04:57:54.128Z,21.07
2019-02-08T05:02:49.971Z,21.47
2019-02-08T05:07:45.704Z,18.37
2019-02-08T05:12:41.414Z,19.13
2019-02-08T05:17:37.109Z,18.73
2019-02-08T05:22:32.827Z,18.43
2019-02-08T05:27:28.535Z,17.93
2019-02-08T05:32:24.221Z,17.80
2019-02-08T05:37:19.943Z,16.37
2019-02-08T05:42:15.667Z,18.10
2019-02-08T05:47:11.379Z,18.83
2019-02-08T05:52:07.193Z,19.57
2019-02-08T05:57:03.021Z,18.03
2019-02-08T06:01:58.763Z,19.87
2019-02-08T06:06:54.453Z,20.07
2019-02-08T06:11:50.197Z,18.40
2019-02-08T06:16:47.059Z,17.90
2019-02-08T06:21:42.885Z,19.40
2019-02-08T06:26:38.619Z,18.83
2019-02-08T06:31:34.309Z,17.57
2019-02-08T06:36:30.020Z,22.58
2019-02-08T06:41:25.734Z,18.93
2019-02-08T06:46:22.459Z,19.00
2019-02-08T06:51:18.265Z,18.37
2019-02-08T06:56:15.878Z,18.83
2019-02-08T07:01:13.499Z,19.07
2019-02-08T07:06:17.289Z,18.67
2019-02-08T07:11:20.555Z,17.83
2019-02-08T07:16:24.052Z,16.67
2019-02-08T07:21:21.637Z,17.23
2019-02-08T07:26:25.132Z,17.37
2019-02-08T07:31:39.283Z,17.23
2019-02-08T07:36:36.911Z,18.03
2019-02-08T07:41:34.621Z,17.43
2019-02-08T07:46:32.321Z,20.30
2019-02-08T07:51:41.979Z,17.57
2019-02-08T07:56:51.370Z,18.23
2019-02-08T08:01:49.013Z,15.30
2019-02-08T08:07:04.720Z,16.83
2019-02-08T08:12:11.615Z,16.50
2019-02-08T08:17:09.340Z,16.33
2019-02-08T08:22:15.849Z,16.23
2019-02-08T08:27:22.578Z,16.07
2019-02-08T08:32:22.098Z,15.40
2019-02-08T08:37:36.073Z,16.07
2019-02-08T08:42:33.687Z,15.90
2019-02-08T08:47:40.526Z,14.13
2019-02-08T08:52:38.133Z,13.63
2019-02-08T08:57:36.009Z,13.70
2019-02-08T09:02:33.653Z,13.53
2019-02-08T09:07:49.243Z,12.83
2019-02-08T09:13:03.628Z,12.73
2019-02-08T09:18:04.345Z,12.50
2019-02-08T09:23:10.976Z,12.33
2019-02-08T09:28:17.562Z,12.43
2019-02-08T09:33:17.932Z,11.63
2019-02-08T09:38:27.495Z,12.50
2019-02-08T09:43:31.147Z,13.37
2019-02-08T09:48:28.796Z,12.70
2019-02-08T09:53:43.128Z,12.97
2019-02-08T09:58:55.607Z,12.90
2019-02-08T10:03:53.289Z,11.50
2019-02-08T10:08:53.903Z,12.25
2019-02-08T10:14:03.667Z,11.70
2019-02-08T10:19:17.943Z,10.85
2019-02-08T10:24:33.493Z,10.68
2019-02-08T10:29:34.101Z,10.48
2019-02-08T10:34:48.243Z,10.23
2019-02-08T10:40:02.578Z,10.45
2019-02-08T10:45:06.287Z,9.08
2019-02-08T10:50:12.971Z,9.78
2019-02-08T10:55:26.978Z,10.00
2019-02-08T11:00:40.075Z,9.38
2019-02-08T11:05:49.827Z,9.25
2019-02-08T11:10:59.485Z,8.38
2019-02-08T11:15:57.201Z,9.10
2019-02-08T11:20:53.137Z,9.40
2019-02-08T11:25:50.129Z,6.92
2019-02-08T11:30:46.048Z,7.12
2019-02-08T11:35:41.872Z,6.75
2019-02-08T11:40:37.695Z,6.42
2019-02-08T11:45:35.308Z,6.00
2019-02-08T11:50:31.123Z,6.42
2019-02-08T11:55:26.875Z,5.78
2019-02-08T12:00:26.827Z,6.60
2019-02-08T12:05:23.643Z,6.12
2019-02-08T12:10:20.270Z,6.90
2019-02-08T12:15:17.435Z,6.65
2019-02-08T12:20:13.334Z,5.62
2019-02-08T12:25:10.270Z,5.85
2019-02-08T12:30:07.899Z,5.53
2019-02-08T12:35:05.838Z,5.00
2019-02-08T12:40:02.006Z,5.40
2019-02-08T12:44:58.686Z,5.45
2019-02-08T12:49:54.405Z,4.80
2019-02-08T12:54:50.113Z,4.85
2019-02-08T12:59:46.147Z,4.53
2019-02-08T13:04:41.895Z,4.90
2019-02-08T13:09:38.700Z,5.00
2019-02-08T13:14:35.407Z,5.40
2019-02-08T13:19:31.261Z,4.83
2019-02-08T13:24:27.311Z,4.87
2019-02-08T13:29:23.025Z,4.70
2019-02-08T13:34:18.862Z,4.97
2019-02-08T13:39:15.620Z,4.33
2019-02-08T13:44:11.644Z,4.50
2019-02-08T13:49:07.541Z,4.67
2019-02-08T13:54:03.761Z,4.67
2019-02-08T13:58:59.753Z,3.90
2019-02-08T14:03:55.585Z,3.80
2019-02-08T14:08:51.298Z,4.40
2019-02-08T14:13:47.358Z,3.80
2019-02-08T14:18:43.915Z,3.80
2019-02-08T14:23:39.739Z,3.00
2019-02-08T14:28:35.471Z,3.30
2019-02-08T14:33:31.178Z,3.13
2019-02-08T14:38:27.271Z,3.40
2019-02-08T14:43:23.147Z,2.87
2019-02-08T14:48:19.054Z,3.23
2019-02-08T14:53:14.931Z,2.93
2019-02-08T14:58:10.773Z,2.80
2019-02-08T15:03:07.003Z,3.07
2019-02-08T15:08:03.128Z,3.03
2019-02-08T15:13:00.309Z,3.50
2019-02-08T15:17:56.647Z,3.20
2019-02-08T15:22:52.479Z,3.53
2019-02-08T15:27:48.459Z,10.83
2019-02-08T15:32:44.270Z,13.03
2019-02-08T15:37:40.837Z,9.13
2019-02-08T15:42:36.658Z,7.10
2019-02-08T15:47:32.958Z,3.87
2019-02-08T15:52:29.035Z,2.67
2019-02-08T15:57:31.788Z,2.43
2019-02-08T16:02:22.483Z,2.37
2019-02-08T16:07:18.195Z,2.23
2019-02-08T16:12:13.943Z,3.23
2019-02-08T16:17:09.859Z,2.43
2019-02-08T16:22:06.082Z,2.30
2019-02-08T16:27:02.265Z,2.40
2019-02-08T16:31:58.053Z,2.10
2019-02-08T16:37:31.092Z,1.90
2019-02-08T16:48:11.180Z,1.90
2019-02-08T16:53:07.500Z,2.07
2019-02-08T16:58:04.315Z,1.80
2019-02-08T17:03:01.021Z,2.80
2019-02-08T17:07:57.103Z,1.87
2019-02-08T17:12:52.776Z,2.20
2019-02-08T17:17:48.599Z,1.90
2019-02-08T17:22:44.321Z,2.40
2019-02-08T17:27:40.024Z,1.83
2019-02-08T17:32:35.764Z,2.10
2019-02-08T17:37:31.528Z,2.43
2019-02-08T17:42:27.297Z,3.40
2019-02-08T17:47:23.275Z,2.47
2019-02-08T17:52:18.957Z,3.33
2019-02-08T17:57:14.761Z,3.47
2019-02-08T18:02:10.483Z,2.93
2019-02-08T18:07:06.233Z,3.53
2019-02-08T18:12:02.071Z,3.60
2019-02-08T18:16:57.765Z,4.23
2019-02-08T18:21:53.491Z,3.33
2019-02-08T18:26:49.177Z,3.20
2019-02-08T18:31:44.874Z,3.37
2019-02-08T18:36:40.573Z,3.40
2019-02-08T18:41:36.312Z,3.50
2019-02-08T18:46:32.379Z,4.57
2019-02-08T18:51:28.177Z,6.20
2019-02-08T18:56:23.943Z,4.23
2019-02-08T19:01:19.923Z,4.17
2019-02-08T19:06:15.754Z,4.67
2019-02-08T19:11:11.558Z,4.70
2019-02-08T19:16:07.239Z,4.80
2019-02-08T19:21:02.965Z,4.93
2019-02-08T19:25:58.789Z,4.83
2019-02-08T19:30:54.491Z,5.33
2019-02-08T19:35:50.209Z,6.43
2019-02-08T19:40:46.528Z,5.53
2019-02-08T19:45:42.242Z,4.63
2019-02-08T19:50:38.963Z,4.80
2019-02-08T19:55:34.820Z,6.20
2019-02-08T20:00:31.757Z,4.73
2019-02-08T20:05:28.101Z,6.07
2019-02-08T20:10:25.038Z,5.27
2019-02-08T20:15:20.729Z,5.50
2019-02-08T20:20:16.530Z,5.53
2019-02-08T20:25:16.362Z,6.80
2019-02-08T20:30:16.033Z,6.57
2019-02-08T20:35:15.945Z,7.00
2019-02-08T20:40:13.412Z,6.17
2019-02-08T20:45:11.047Z,5.83
2019-02-08T20:50:08.316Z,5.80
2019-02-08T20:55:05.571Z,5.70
2019-02-08T21:00:02.506Z,6.37
2019-02-08T21:04:58.350Z,5.00
2019-02-08T21:09:54.284Z,6.50
2019-02-08T21:14:49.998Z,6.73
2019-02-08T21:19:45.727Z,6.90
2019-02-08T21:24:41.781Z,7.43
2019-02-08T21:29:37.585Z,6.10
2019-02-08T21:34:33.299Z,6.30
2019-02-08T21:39:29.147Z,4.00
2019-02-08T21:44:24.925Z,2.63
2019-02-08T21:49:21.037Z,2.50
2019-02-08T21:54:16.712Z,2.37
2019-02-08T21:59:12.431Z,2.03
2019-02-08T22:04:08.111Z,2.50
2019-02-08T22:09:06.000Z,2.57
2019-02-08T22:14:02.013Z,2.50
2019-02-08T22:18:57.735Z,2.40
2019-02-08T22:23:53.436Z,2.63
2019-02-08T22:28:49.410Z,2.30
2019-02-08T22:33:45.532Z,2.40
2019-02-08T22:38:41.334Z,2.27
2019-02-08T22:43:37.320Z,2.27
2019-02-08T22:48:32.995Z,2.27
2019-02-08T22:53:28.715Z,2.17
2019-02-08T22:58:24.440Z,2.23
2019-02-08T23:03:20.159Z,2.17
2019-02-08T23:08:15.873Z,2.47
2019-02-08T23:13:11.689Z,2.30
2019-02-08T23:18:07.889Z,2.13
2019-02-08T23:23:04.000Z,2.30
2019-02-08T23:27:59.703Z,2.50
2019-02-08T23:32:55.419Z,2.20
2019-02-08T23:37:51.111Z,2.43
2019-02-08T23:42:47.201Z,2.33
2019-02-08T23:47:43.167Z,2.60
2019-02-08T23:52:38.876Z,2.63
2019-02-08T23:57:34.573Z,2.70
